createdAt,value
2018-12-27T00:01:51.057Z,-3.40
2018-12-27T00:04:32.602Z,-3.30
2018-12-27T00:07:14.198Z,-3.30
2018-12-27T00:09:44.366Z,-3.40
2018-12-27T00:12:14.848Z,-3.40
2018-12-27T00:15:04.804Z,-3.30
2018-12-27T00:17:53.964Z,-3.40
2018-12-27T00:20:42.815Z,-3.50
2018-12-27T00:23:12.931Z,-3.40
2018-12-27T00:25:54.713Z,-3.50
2018-12-27T00:28:36.063Z,-3.40
2018-12-27T00:31:17.681Z,-3.40
2018-12-27T00:33:59.475Z,-3.40
2018-12-27T00:36:40.833Z,-3.40
2018-12-27T00:39:11.381Z,-3.50
2018-12-27T00:42:00.383Z,-3.60
2018-12-27T00:44:49.622Z,-3.60
2018-12-27T00:47:32.024Z,-3.70
2018-12-27T00:50:11.012Z,-3.70
2018-12-27T00:53:00.084Z,-3.70
2018-12-27T00:55:30.543Z,-3.70
2018-12-27T00:58:20.019Z,-3.70
2018-12-27T01:01:09.448Z,-3.70
2018-12-27T01:03:58.634Z,-3.70
2018-12-27T01:09:57.015Z,-3.70
2018-12-27T01:12:45.900Z,-3.70
2018-12-27T01:15:34.926Z,-3.80
2018-12-27T01:18:29.950Z,-3.90
2018-12-27T01:21:19.099Z,-3.90
2018-12-27T01:24:00.247Z,-3.90
2018-12-27T01:26:41.674Z,-4.00
2018-12-27T01:29:22.956Z,-4.00
2018-12-27T01:32:04.540Z,-3.90
2018-12-27T01:34:45.944Z,-4.00
2018-12-27T01:40:09.955Z,-4.10
2018-12-27T01:42:51.471Z,-4.10
2018-12-27T01:45:21.630Z,-4.10
2018-12-27T01:48:12.384Z,-4.10
2018-12-27T01:51:01.365Z,-4.00
2018-12-27T01:53:50.363Z,-3.90
2018-12-27T01:56:39.245Z,-3.90
2018-12-27T01:59:28.115Z,-4.00
2018-12-27T02:02:17.195Z,-4.10
2018-12-27T02:05:06.104Z,-4.20
2018-12-27T02:10:43.156Z,-4.30
2018-12-27T02:13:32.596Z,-4.30
2018-12-27T02:16:21.470Z,-4.40
2018-12-27T02:19:10.374Z,-4.40
2018-12-27T02:21:54.670Z,-4.40
2018-12-27T02:24:36.438Z,-4.50
2018-12-27T02:27:17.695Z,-4.40
2018-12-27T02:29:59.207Z,-4.40
2018-12-27T02:32:40.431Z,-4.40
2018-12-27T02:35:21.949Z,-4.40
2018-12-27T02:38:03.749Z,-4.40
2018-12-27T02:40:44.613Z,-4.40
2018-12-27T02:43:26.246Z,-4.40
2018-12-27T02:46:08.032Z,-4.20
2018-12-27T02:48:49.203Z,-4.20
2018-12-27T02:51:19.926Z,-4.30
2018-12-27T02:53:50.155Z,-4.30
2018-12-27T02:56:39.689Z,-4.40
2018-12-27T02:59:28.849Z,-4.20
2018-12-27T03:02:17.795Z,-4.20
2018-12-27T03:05:06.755Z,-4.20
2018-12-27T03:07:55.684Z,-4.30
2018-12-27T03:10:44.594Z,-4.30
2018-12-27T03:13:33.551Z,-4.30
2018-12-27T03:16:22.414Z,-4.40
2018-12-27T03:24:49.784Z,-4.50
2018-12-27T03:27:31.310Z,-4.50
2018-12-27T03:30:12.543Z,-4.50
2018-12-27T03:32:42.629Z,-4.60
2018-12-27T03:35:31.608Z,-4.60
2018-12-27T03:38:20.580Z,-4.60
2018-12-27T03:41:09.506Z,-4.60
2018-12-27T03:43:58.358Z,-4.60
2018-12-27T03:46:47.250Z,-4.60
2018-12-27T03:49:56.408Z,-4.60
2018-12-27T03:52:45.296Z,-4.70
2018-12-27T03:55:34.170Z,-4.70
2018-12-27T03:58:35.218Z,-4.70
2018-12-27T04:01:13.899Z,-4.70
2018-12-27T04:04:02.916Z,-4.60
2018-12-27T04:06:51.861Z,-4.60
2018-12-27T04:09:40.833Z,-4.60
2018-12-27T04:12:22.526Z,-4.70
2018-12-27T04:15:03.980Z,-4.60
2018-12-27T04:17:45.775Z,-4.70
2018-12-27T04:20:27.331Z,-4.70
2018-12-27T04:23:08.907Z,-4.70
2018-12-27T04:25:50.605Z,-4.70
2018-12-27T04:28:31.707Z,-4.70
2018-12-27T04:31:13.172Z,-4.70
2018-12-27T04:33:54.665Z,-4.70
2018-12-27T04:36:36.116Z,-4.70
2018-12-27T04:39:17.937Z,-4.70
2018-12-27T04:41:58.926Z,-4.70
2018-12-27T04:44:40.104Z,-4.70
2018-12-27T04:47:21.694Z,-4.70
2018-12-27T04:50:03.242Z,-4.70
2018-12-27T04:52:44.817Z,-4.70
2018-12-27T04:55:25.950Z,-4.70
2018-12-27T04:57:55.821Z,-4.70
2018-12-27T05:00:44.553Z,-4.70
2018-12-27T05:03:33.381Z,-4.70
2018-12-27T05:06:22.248Z,-4.70
2018-12-27T05:09:04.757Z,-4.60
2018-12-27T05:11:46.431Z,-4.70
2018-12-27T05:14:27.655Z,-4.70
2018-12-27T05:17:09.065Z,-4.70
2018-12-27T05:19:38.889Z,-4.70
2018-12-27T05:22:27.898Z,-4.70
2018-12-27T05:25:16.764Z,-4.80
2018-12-27T05:28:24.572Z,-4.70
2018-12-27T05:31:13.421Z,-4.80
2018-12-27T05:34:02.351Z,-4.80
2018-12-27T05:36:51.157Z,-4.90
2018-12-27T05:39:39.967Z,-4.80
2018-12-27T05:42:28.837Z,-4.80
2018-12-27T05:45:17.649Z,-4.90
2018-12-27T05:48:08.898Z,-4.90
2018-12-27T05:50:57.659Z,-5.00
2018-12-27T05:54:06.769Z,-5.00
2018-12-27T05:56:55.642Z,-5.00
2018-12-27T05:59:46.975Z,-5.00
2018-12-27T06:02:28.697Z,-5.00
2018-12-27T06:05:10.467Z,-5.00
2018-12-27T06:07:51.699Z,-5.00
2018-12-27T06:10:33.333Z,-4.90
2018-12-27T06:13:14.830Z,-4.90
2018-12-27T06:15:56.591Z,-5.00
2018-12-27T06:18:37.609Z,-5.00
2018-12-27T06:21:19.042Z,-5.10
2018-12-27T06:24:00.395Z,-5.10
2018-12-27T06:26:30.405Z,-5.10
2018-12-27T06:29:19.499Z,-5.00
2018-12-27T06:31:49.416Z,-5.00
2018-12-27T06:34:41.480Z,-5.10
2018-12-27T06:37:29.290Z,-5.10
2018-12-27T06:40:18.394Z,-5.10
2018-12-27T06:43:10.167Z,-5.20
2018-12-27T06:45:59.328Z,-5.10
2018-12-27T06:48:48.204Z,-5.00
2018-12-27T06:51:37.105Z,-4.90
2018-12-27T06:54:26.120Z,-4.90
2018-12-27T06:57:07.071Z,-4.90
2018-12-27T06:59:48.615Z,-5.00
2018-12-27T07:02:18.836Z,-5.00
2018-12-27T07:05:08.183Z,-5.10
2018-12-27T07:07:57.261Z,-5.00
2018-12-27T07:10:46.476Z,-4.90
2018-12-27T07:13:35.489Z,-4.90
2018-12-27T07:16:24.395Z,-4.90
2018-12-27T07:18:54.558Z,-4.90
2018-12-27T07:21:43.672Z,-4.80
2018-12-27T07:24:32.634Z,-4.80
2018-12-27T07:27:21.670Z,-4.80
2018-12-27T07:30:10.707Z,-4.70
2018-12-27T07:32:59.570Z,-4.80
2018-12-27T07:35:48.607Z,-4.90
2018-12-27T07:38:37.684Z,-4.90
2018-12-27T07:41:46.988Z,-4.80
2018-12-27T07:44:35.819Z,-4.70
2018-12-27T07:47:24.915Z,-4.70
2018-12-27T07:50:13.687Z,-4.60
2018-12-27T07:53:14.754Z,-4.40
2018-12-27T08:01:55.356Z,-3.90
2018-12-27T08:07:28.043Z,-3.60
2018-12-27T08:10:17.199Z,-3.50
2018-12-27T08:13:26.453Z,-3.30
2018-12-27T08:16:15.837Z,-3.10
2018-12-27T08:19:05.066Z,-2.90
2018-12-27T08:21:55.268Z,-2.70
2018-12-27T08:24:44.982Z,-2.60
2018-12-27T08:27:17.899Z,-2.40
2018-12-27T08:33:09.113Z,-2.10
2018-12-27T08:36:12.300Z,-1.90
2018-12-27T08:38:50.019Z,-1.70
2018-12-27T08:41:38.818Z,-1.60
2018-12-27T08:48:15.128Z,-1.60
2018-12-27T08:51:04.019Z,-1.60
2018-12-27T08:53:45.161Z,-1.50
2018-12-27T08:56:26.635Z,-1.50
2018-12-27T08:59:08.001Z,-1.40
2018-12-27T09:04:46.217Z,-1.10
2018-12-27T09:11:46.110Z,-0.90
2018-12-27T09:18:20.104Z,-0.80
2018-12-27T09:27:23.216Z,-0.60
2018-12-27T09:30:21.341Z,-0.50
2018-12-27T09:33:36.130Z,-0.50
2018-12-27T09:37:22.062Z,-0.40
2018-12-27T09:51:49.329Z,0.00
2018-12-27T09:54:30.820Z,0.00
2018-12-27T09:57:12.064Z,0.00
2018-12-27T10:02:35.834Z,0.20
2018-12-27T10:05:17.063Z,0.10
2018-12-27T10:07:58.435Z,0.20
2018-12-27T10:10:39.997Z,0.30
2018-12-27T10:13:21.299Z,0.40
2018-12-27T10:16:03.467Z,0.40
2018-12-27T10:18:45.014Z,0.40
2018-12-27T10:21:28.918Z,0.40
2018-12-27T10:24:10.480Z,0.30
2018-12-27T10:26:52.486Z,0.30
2018-12-27T10:29:34.517Z,0.40
2018-12-27T10:32:15.786Z,0.40
2018-12-27T10:34:57.154Z,0.40
2018-12-27T10:37:40.531Z,0.50
2018-12-27T10:40:22.032Z,0.50
2018-12-27T10:43:03.550Z,0.60
2018-12-27T10:45:46.005Z,0.60
2018-12-27T10:48:27.128Z,0.60
2018-12-27T10:51:08.407Z,0.70
2018-12-27T10:53:49.940Z,0.70
2018-12-27T10:59:20.399Z,0.70
2018-12-27T11:02:02.034Z,0.70
2018-12-27T11:04:43.397Z,0.70
2018-12-27T11:10:12.738Z,0.70
2018-12-27T11:12:54.366Z,0.80
2018-12-27T11:15:36.663Z,0.90
2018-12-27T11:18:17.571Z,1.00
2018-12-27T11:20:59.000Z,1.10
2018-12-27T11:23:40.594Z,1.20
2018-12-27T11:26:22.370Z,1.30
2018-12-27T11:29:03.842Z,1.30
2018-12-27T11:31:45.342Z,1.40
2018-12-27T11:34:26.810Z,1.30
2018-12-27T11:36:56.856Z,1.30
2018-12-27T11:39:45.744Z,1.20
2018-12-27T11:42:34.554Z,1.20
2018-12-27T11:45:16.293Z,1.20
2018-12-27T11:47:46.168Z,1.20
2018-12-27T11:50:35.272Z,1.30
2018-12-27T11:59:15.032Z,1.60
2018-12-27T12:02:03.859Z,1.80
2018-12-27T12:04:52.668Z,2.10
2018-12-27T12:07:41.429Z,2.30
2018-12-27T12:10:30.546Z,2.40
2018-12-27T12:13:19.435Z,2.40
2018-12-27T12:15:49.460Z,2.30
2018-12-27T12:18:38.623Z,2.30
2018-12-27T12:21:27.499Z,2.30
2018-12-27T12:24:16.545Z,2.30
2018-12-27T12:27:05.347Z,2.40
2018-12-27T12:29:54.158Z,2.60
2018-12-27T12:32:43.059Z,2.70
2018-12-27T12:35:32.069Z,2.80
2018-12-27T12:38:21.029Z,2.90
2018-12-27T12:43:50.208Z,2.70
2018-12-27T12:46:31.670Z,2.70
2018-12-27T12:49:13.229Z,2.60
2018-12-27T12:51:54.222Z,2.50
2018-12-27T12:54:35.517Z,2.50
2018-12-27T12:57:16.989Z,2.50
2018-12-27T12:59:58.342Z,2.50
2018-12-27T13:02:39.425Z,2.50
2018-12-27T13:05:21.098Z,2.50
2018-12-27T13:08:02.551Z,2.50
2018-12-27T13:10:44.305Z,2.50
2018-12-27T13:13:25.753Z,2.50
2018-12-27T13:15:55.588Z,2.60
2018-12-27T13:18:47.479Z,2.60
2018-12-27T13:21:34.891Z,2.60
2018-12-27T13:24:23.711Z,2.60
2018-12-27T13:27:12.862Z,2.50
2018-12-27T13:30:01.639Z,2.50
2018-12-27T13:32:50.568Z,2.50
2018-12-27T13:35:39.354Z,2.50
2018-12-27T13:38:28.083Z,2.40
2018-12-27T13:41:07.952Z,2.40
2018-12-27T13:43:56.707Z,2.30
2018-12-27T13:46:45.513Z,2.30
2018-12-27T13:49:34.259Z,2.30
2018-12-27T13:52:23.735Z,2.20
2018-12-27T13:55:13.522Z,2.20
2018-12-27T13:58:16.071Z,2.10
2018-12-27T14:00:52.821Z,2.00
2018-12-27T14:03:53.362Z,2.00
2018-12-27T14:06:32.784Z,1.90
2018-12-27T14:09:22.353Z,1.80
2018-12-27T14:12:11.199Z,1.80
2018-12-27T14:14:59.981Z,1.70
2018-12-27T14:17:48.734Z,1.70
2018-12-27T14:20:37.537Z,1.60
2018-12-27T14:23:26.347Z,1.60
2018-12-27T14:26:15.089Z,1.50
2018-12-27T14:29:03.927Z,1.50
2018-12-27T14:31:52.680Z,1.40
2018-12-27T14:34:41.517Z,1.30
2018-12-27T14:37:22.829Z,1.20
2018-12-27T14:40:04.487Z,1.20
2018-12-27T14:42:46.061Z,1.20
2018-12-27T14:45:27.252Z,1.10
2018-12-27T14:48:08.941Z,1.00
2018-12-27T14:50:50.752Z,0.90
2018-12-27T14:53:31.742Z,0.80
2018-12-27T14:56:13.238Z,0.70
2018-12-27T14:58:54.474Z,0.60
2018-12-27T15:01:36.134Z,0.60
2018-12-27T15:04:17.380Z,0.50
2018-12-27T15:06:59.003Z,0.50
2018-12-27T15:09:40.282Z,0.40
2018-12-27T15:12:21.885Z,0.40
2018-12-27T15:15:02.969Z,0.40
2018-12-27T15:17:44.538Z,0.30
2018-12-27T15:20:26.120Z,0.30
2018-12-27T15:23:07.519Z,0.20
2018-12-27T15:25:49.073Z,0.10
2018-12-27T15:28:30.476Z,0.10
2018-12-27T15:34:13.517Z,-0.10
2018-12-27T15:36:55.350Z,-0.20
2018-12-27T15:39:36.476Z,-0.30
2018-12-27T15:42:17.385Z,-0.40
2018-12-27T15:44:58.437Z,-0.40
2018-12-27T15:47:39.976Z,-0.40
2018-12-27T15:50:21.719Z,-0.50
2018-12-27T15:52:51.482Z,-0.60
2018-12-27T15:55:21.396Z,-0.60
2018-12-27T15:58:10.170Z,-0.70
2018-12-27T16:00:58.981Z,-0.70
2018-12-27T16:03:47.787Z,-0.70
2018-12-27T16:06:36.633Z,-0.80
2018-12-27T16:09:25.466Z,-0.80
2018-12-27T16:12:14.388Z,-0.90
2018-12-27T16:15:03.312Z,-0.90
2018-12-27T16:17:52.225Z,-0.80
2018-12-27T16:20:40.987Z,-0.90
2018-12-27T16:23:29.823Z,-0.90
2018-12-27T16:26:18.579Z,-0.90
2018-12-27T16:29:07.358Z,-1.00
2018-12-27T16:31:56.154Z,-1.10
2018-12-27T16:34:45.020Z,-1.10
2018-12-27T16:37:27.022Z,-1.10
2018-12-27T16:40:08.329Z,-1.10
2018-12-27T16:42:50.026Z,-1.20
2018-12-27T16:45:31.398Z,-1.20
2018-12-27T16:48:12.992Z,-1.20
2018-12-27T16:50:54.392Z,-1.20
2018-12-27T16:53:35.935Z,-1.20
2018-12-27T16:56:17.734Z,-1.20
2018-12-27T16:58:59.220Z,-1.20
2018-12-27T17:01:40.275Z,-1.10
2018-12-27T17:04:21.783Z,-1.10
2018-12-27T17:07:03.349Z,-1.10
2018-12-27T17:09:33.267Z,-1.10
2018-12-27T17:12:22.031Z,-1.10
2018-12-27T17:15:11.982Z,-1.10
2018-12-27T17:18:01.210Z,-1.00
2018-12-27T17:20:50.392Z,-1.00
2018-12-27T17:23:39.148Z,-1.00
2018-12-27T17:26:14.616Z,-1.00
2018-12-27T17:29:03.445Z,-1.00
2018-12-27T17:31:52.222Z,-1.00
2018-12-27T17:34:41.052Z,-1.10
2018-12-27T17:37:23.425Z,-1.20
2018-12-27T17:40:05.098Z,-1.20
2018-12-27T17:42:46.421Z,-1.20
2018-12-27T17:45:27.995Z,-1.20
2018-12-27T17:48:09.703Z,-1.20
2018-12-27T17:50:51.042Z,-1.30
2018-12-27T17:53:32.455Z,-1.30
2018-12-27T17:56:13.919Z,-1.20
2018-12-27T17:58:55.685Z,-1.10
2018-12-27T18:01:37.512Z,-1.00
2018-12-27T18:04:19.097Z,-1.00
2018-12-27T18:07:00.391Z,-1.20
2018-12-27T18:09:41.971Z,-1.20
2018-12-27T18:12:23.587Z,-1.30
2018-12-27T18:15:05.262Z,-1.20
2018-12-27T18:17:46.803Z,-1.20
2018-12-27T18:20:28.240Z,-1.10
2018-12-27T18:23:09.908Z,-1.10
2018-12-27T18:25:51.465Z,-1.20
2018-12-27T18:28:33.126Z,-1.20
2018-12-27T18:31:03.169Z,-1.30
2018-12-27T18:33:52.057Z,-1.40
2018-12-27T18:36:40.987Z,-1.40
2018-12-27T18:39:29.832Z,-1.40
2018-12-27T18:42:18.703Z,-1.50
2018-12-27T18:45:07.972Z,-1.50
2018-12-27T18:47:56.970Z,-1.40
2018-12-27T18:50:45.818Z,-1.50
2018-12-27T18:53:34.774Z,-1.40
2018-12-27T18:56:23.702Z,-1.40
2018-12-27T18:59:12.714Z,-1.30
2018-12-27T19:02:01.747Z,-1.30
2018-12-27T19:04:50.636Z,-1.40
2018-12-27T19:07:44.930Z,-1.40
2018-12-27T19:10:30.254Z,-1.30
2018-12-27T19:13:19.225Z,-1.30
2018-12-27T19:16:08.123Z,-1.30
2018-12-27T19:18:57.081Z,-1.30
2018-12-27T19:21:48.652Z,-1.30
2018-12-27T19:24:19.403Z,-1.30
2018-12-27T19:27:08.236Z,-1.30
2018-12-27T19:29:49.619Z,-1.30
2018-12-27T19:32:19.973Z,-1.30
2018-12-27T19:35:08.936Z,-1.20
2018-12-27T19:37:57.969Z,-1.20
2018-12-27T19:40:47.102Z,-1.20
2018-12-27T19:43:37.157Z,-1.20
2018-12-27T19:46:26.833Z,-1.20
2018-12-27T19:49:15.904Z,-1.30
2018-12-27T19:52:25.035Z,-1.20
2018-12-27T19:55:14.102Z,-1.30
2018-12-27T20:01:12.629Z,-1.30
2018-12-27T20:04:01.672Z,-1.30
2018-12-27T20:06:50.665Z,-1.40
2018-12-27T20:09:39.598Z,-1.50
2018-12-27T20:12:28.622Z,-1.50
2018-12-27T20:15:17.601Z,-1.50
2018-12-27T20:18:26.825Z,-1.50
2018-12-27T20:21:15.955Z,-1.50
2018-12-27T20:24:05.121Z,-1.50
2018-12-27T20:26:54.171Z,-1.60
2018-12-27T20:29:35.674Z,-1.60
2018-12-27T20:32:05.788Z,-1.60
2018-12-27T20:34:55.006Z,-1.60
2018-12-27T20:37:43.897Z,-1.60
2018-12-27T20:40:33.290Z,-1.60
2018-12-27T20:43:35.767Z,-1.50
2018-12-27T20:46:12.773Z,-1.50
2018-12-27T20:49:01.770Z,-1.50
2018-12-27T20:51:50.884Z,-1.50
2018-12-27T20:54:39.764Z,-1.50
2018-12-27T20:57:28.645Z,-1.50
2018-12-27T21:00:17.670Z,-1.40
2018-12-27T21:06:02.566Z,-1.40
2018-12-27T21:08:51.537Z,-1.40
2018-12-27T21:11:40.453Z,-1.40
2018-12-27T21:14:29.321Z,-1.40
2018-12-27T21:17:18.301Z,-1.50
2018-12-27T21:20:07.343Z,-1.50
2018-12-27T21:22:56.393Z,-1.50
2018-12-27T21:25:45.351Z,-1.50
2018-12-27T21:28:26.654Z,-1.50
2018-12-27T21:31:10.837Z,-1.50
2018-12-27T21:33:52.593Z,-1.50
2018-12-27T21:36:33.923Z,-1.40
2018-12-27T21:39:15.536Z,-1.50
2018-12-27T21:41:57.482Z,-1.40
2018-12-27T21:44:39.038Z,-1.40
2018-12-27T21:47:20.406Z,-1.40
2018-12-27T21:50:02.254Z,-1.40
2018-12-27T21:52:44.284Z,-1.30
2018-12-27T21:55:25.557Z,-1.30
2018-12-27T21:57:55.482Z,-1.30
2018-12-27T22:00:44.445Z,-1.30
2018-12-27T22:03:33.317Z,-1.30
2018-12-27T22:06:22.028Z,-1.30
2018-12-27T22:09:10.806Z,-1.20
2018-12-27T22:11:59.653Z,-1.20
2018-12-27T22:14:54.222Z,-1.30
2018-12-27T22:17:43.419Z,-1.30
2018-12-27T22:20:32.370Z,-1.20
2018-12-27T22:23:15.430Z,-1.30
2018-12-27T22:25:57.397Z,-1.20
2018-12-27T22:28:39.144Z,-1.20
2018-12-27T22:31:21.156Z,-1.30
2018-12-27T22:34:04.097Z,-1.20
2018-12-27T22:36:45.482Z,-1.20
2018-12-27T22:39:26.905Z,-1.20
2018-12-27T22:42:08.584Z,-1.20
2018-12-27T22:44:50.082Z,-1.20
2018-12-27T22:47:32.745Z,-1.20
2018-12-27T22:50:14.405Z,-1.10
2018-12-27T22:53:00.881Z,-1.10
2018-12-27T22:55:42.184Z,-1.10
2018-12-27T22:58:26.330Z,-1.10
2018-12-27T23:03:49.749Z,-1.20
2018-12-27T23:06:31.683Z,-1.20
2018-12-27T23:09:12.894Z,-1.20
2018-12-27T23:11:43.162Z,-1.20
2018-12-27T23:14:33.436Z,-1.20
2018-12-27T23:17:22.491Z,-1.20
2018-12-27T23:20:03.765Z,-1.20
2018-12-27T23:25:41.832Z,-1.10
2018-12-27T23:28:31.374Z,-1.20
2018-12-27T23:31:20.620Z,-1.20
2018-12-27T23:34:09.685Z,-1.20
2018-12-27T23:36:58.627Z,-1.20
2018-12-27T23:39:47.876Z,-1.20
2018-12-27T23:42:36.617Z,-1.20
2018-12-27T23:45:25.433Z,-1.20
2018-12-27T23:48:14.286Z,-1.20
2018-12-27T23:51:03.114Z,-1.30
2018-12-27T23:53:51.995Z,-1.30
2018-12-27T23:56:48.110Z,-1.40
2018-12-27T23:59:36.968Z,-1.50
